sensor_id;sensor_type;location;lat;lon;timestamp;pressure;altitude;pressure_sealevel;temperature;humidity
71643;BME280;59438;45.014;39.006;2022-09-09T00:02:04;101810.63;;;13.02;61.91
71643;BME280;59438;45.014;39.006;2022-09-09T00:04:36;101820.31;;;13.01;61.43
71643;BME280;59438;45.014;39.006;2022-09-09T00:07:07;101812.41;;;13.01;61.14
71643;BME280;59438;45.014;39.006;2022-09-09T00:09:45;101812.31;;;13.03;61.80
71643;BME280;59438;45.014;39.006;2022-09-09T00:12:15;101812.41;;;13.01;61.41
71643;BME280;59438;45.014;39.006;2022-09-09T00:14:51;101819.53;;;12.98;62.07
71643;BME280;59438;45.014;39.006;2022-09-09T00:17:30;101808.34;;;12.89;61.97
71643;BME280;59438;45.014;39.006;2022-09-09T00:20:01;101806.00;;;12.79;61.67
71643;BME280;59438;45.014;39.006;2022-09-09T00:22:30;101795.75;;;12.68;62.23
71643;BME280;59438;45.014;39.006;2022-09-09T00:25:03;101799.28;;;12.68;63.03
71643;BME280;59438;45.014;39.006;2022-09-09T00:27:39;101810.63;;;12.70;63.23
71643;BME280;59438;45.014;39.006;2022-09-09T00:30:15;101818.47;;;12.72;62.68
71643;BME280;59438;45.014;39.006;2022-09-09T00:32:43;101817.63;;;12.72;61.70
71643;BME280;59438;45.014;39.006;2022-09-09T00:35:16;101818.75;;;12.63;62.95
71643;BME280;59438;45.014;39.006;2022-09-09T00:37:44;101836.25;;;12.65;62.22
71643;BME280;59438;45.014;39.006;2022-09-09T00:40:22;101828.63;;;12.56;63.39
71643;BME280;59438;45.014;39.006;2022-09-09T00:42:52;101842.78;;;12.52;62.87
71643;BME280;59438;45.014;39.006;2022-09-09T00:45:35;101842.00;;;12.48;63.80
71643;BME280;59438;45.014;39.006;2022-09-09T00:48:06;101847.31;;;12.45;63.24
71643;BME280;59438;45.014;39.006;2022-09-09T00:50:43;101823.00;;;12.36;63.65
71643;BME280;59438;45.014;39.006;2022-09-09T00:53:29;101856.94;;;12.48;64.24
71643;BME280;59438;45.014;39.006;2022-09-09T00:56:10;101857.00;;;12.45;64.23
71643;BME280;59438;45.014;39.006;2022-09-09T00:58:37;101858.84;;;12.41;61.66
71643;BME280;59438;45.014;39.006;2022-09-09T01:01:06;101860.63;;;12.41;62.70
71643;BME280;59438;45.014;39.006;2022-09-09T01:03:35;101851.03;;;12.38;62.76
71643;BME280;59438;45.014;39.006;2022-09-09T01:06:16;101850.19;;;12.38;64.83
71643;BME280;59438;45.014;39.006;2022-09-09T01:09:10;101835.38;;;12.34;64.91
71643;BME280;59438;45.014;39.006;2022-09-09T01:11:52;101842.28;;;12.38;65.30
71643;BME280;59438;45.014;39.006;2022-09-09T01:14:32;101838.69;;;12.40;65.29
71643;BME280;59438;45.014;39.006;2022-09-09T01:17:09;101837.00;;;12.38;64.51
71643;BME280;59438;45.014;39.006;2022-09-09T01:22:38;101807.38;;;12.29;64.54
71643;BME280;59438;45.014;39.006;2022-09-09T01:25:22;101814.31;;;12.32;65.37
71643;BME280;59438;45.014;39.006;2022-09-09T01:27:56;101818.78;;;12.28;64.52
71643;BME280;59438;45.014;39.006;2022-09-09T01:30:25;101824.91;;;12.29;63.67
71643;BME280;59438;45.014;39.006;2022-09-09T01:32:54;101827.50;;;12.32;64.74
71643;BME280;59438;45.014;39.006;2022-09-09T01:35:31;101821.25;;;12.36;64.99
71643;BME280;59438;45.014;39.006;2022-09-09T01:38:00;101822.19;;;12.34;63.02
71643;BME280;59438;45.014;39.006;2022-09-09T01:40:27;101788.59;;;12.09;62.67
71643;BME280;59438;45.014;39.006;2022-09-09T01:42:55;101816.28;;;12.24;62.98
71643;BME280;59438;45.014;39.006;2022-09-09T01:45:22;101827.03;;;12.16;63.57
71643;BME280;59438;45.014;39.006;2022-09-09T01:47:51;101824.56;;;12.08;64.47
71643;BME280;59438;45.014;39.006;2022-09-09T01:50:18;101830.00;;;12.02;64.03
71643;BME280;59438;45.014;39.006;2022-09-09T01:52:48;101845.78;;;12.02;65.80
71643;BME280;59438;45.014;39.006;2022-09-09T01:55:16;101832.59;;;12.04;63.89
71643;BME280;59438;45.014;39.006;2022-09-09T01:57:48;101809.28;;;11.87;65.72
71643;BME280;59438;45.014;39.006;2022-09-09T02:00:18;101753.13;;;11.52;65.41
71643;BME280;59438;45.014;39.006;2022-09-09T02:02:51;101829.16;;;12.00;66.02
71643;BME280;59438;45.014;39.006;2022-09-09T02:05:30;101831.91;;;11.97;65.63
71643;BME280;59438;45.014;39.006;2022-09-09T02:08:05;101835.41;;;11.96;64.98
71643;BME280;59438;45.014;39.006;2022-09-09T02:10:37;101794.78;;;11.70;65.39
71643;BME280;59438;45.014;39.006;2022-09-09T02:13:10;101826.09;;;11.81;65.45
71643;BME280;59438;45.014;39.006;2022-09-09T02:15:43;101840.03;;;11.86;66.27
71643;BME280;59438;45.014;39.006;2022-09-09T02:18:14;101851.47;;;11.84;65.75
71643;BME280;59438;45.014;39.006;2022-09-09T02:20:43;101848.91;;;11.82;65.40
71643;BME280;59438;45.014;39.006;2022-09-09T02:23:11;101851.59;;;11.79;65.07
71643;BME280;59438;45.014;39.006;2022-09-09T02:25:40;101856.94;;;11.76;65.73
71643;BME280;59438;45.014;39.006;2022-09-09T02:28:08;101851.75;;;11.73;65.18
71643;BME280;59438;45.014;39.006;2022-09-09T02:30:38;101857.94;;;11.70;66.33
71643;BME280;59438;45.014;39.006;2022-09-09T02:33:07;101855.31;;;11.70;66.78
71643;BME280;59438;45.014;39.006;2022-09-09T02:35:34;101855.28;;;11.72;65.55
71643;BME280;59438;45.014;39.006;2022-09-09T02:38:05;101856.94;;;11.76;67.25
71643;BME280;59438;45.014;39.006;2022-09-09T02:40:33;101859.56;;;11.78;64.88
71643;BME280;59438;45.014;39.006;2022-09-09T02:42:59;101857.78;;;11.78;64.81
71643;BME280;59438;45.014;39.006;2022-09-09T02:45:31;101822.34;;;11.54;67.48
71643;BME280;59438;45.014;39.006;2022-09-09T02:48:08;101863.94;;;11.77;67.47
71643;BME280;59438;45.014;39.006;2022-09-09T02:50:40;101856.13;;;11.74;66.84
71643;BME280;59438;45.014;39.006;2022-09-09T02:53:13;101855.28;;;11.72;67.02
71643;BME280;59438;45.014;39.006;2022-09-09T02:55:46;101842.19;;;11.69;67.46
71643;BME280;59438;45.014;39.006;2022-09-09T02:58:13;101865.44;;;11.87;66.60
71643;BME280;59438;45.014;39.006;2022-09-09T03:00:40;101865.44;;;11.87;65.03
71643;BME280;59438;45.014;39.006;2022-09-09T03:03:08;101867.22;;;11.88;65.63
71643;BME280;59438;45.014;39.006;2022-09-09T03:05:35;101879.47;;;11.88;64.34
71643;BME280;59438;45.014;39.006;2022-09-09T03:08:01;101890.91;;;11.87;64.13
71643;BME280;59438;45.014;39.006;2022-09-09T03:10:28;101882.19;;;11.85;63.76
71643;BME280;59438;45.014;39.006;2022-09-09T03:12:55;101886.66;;;11.81;64.54
71643;BME280;59438;45.014;39.006;2022-09-09T03:15:21;101889.41;;;11.77;64.68
71643;BME280;59438;45.014;39.006;2022-09-09T03:17:48;101891.16;;;11.76;64.33
71643;BME280;59438;45.014;39.006;2022-09-09T03:20:16;101896.44;;;11.76;65.28
71643;BME280;59438;45.014;39.006;2022-09-09T03:22:42;101892.13;;;11.72;64.94
71643;BME280;59438;45.014;39.006;2022-09-09T03:25:09;101888.69;;;11.70;64.32
71643;BME280;59438;45.014;39.006;2022-09-09T03:27:35;101894.00;;;11.67;64.31
71643;BME280;59438;45.014;39.006;2022-09-09T03:30:02;101890.53;;;11.65;64.62
71643;BME280;59438;45.014;39.006;2022-09-09T03:32:29;101879.22;;;11.61;65.24
71643;BME280;59438;45.014;39.006;2022-09-09T03:34:55;101873.16;;;11.58;64.97
71643;BME280;59438;45.014;39.006;2022-09-09T03:37:23;101859.19;;;11.54;66.34
71643;BME280;59438;45.014;39.006;2022-09-09T03:39:50;101869.47;;;11.65;64.90
71643;BME280;59438;45.014;39.006;2022-09-09T03:42:16;101862.34;;;11.70;65.49
71643;BME280;59438;45.014;39.006;2022-09-09T03:44:42;101868.34;;;11.75;64.59
71643;BME280;59438;45.014;39.006;2022-09-09T03:47:09;101871.78;;;11.79;64.81
71643;BME280;59438;45.014;39.006;2022-09-09T03:49:35;101880.50;;;11.82;65.43
71643;BME280;59438;45.014;39.006;2022-09-09T03:52:02;101886.63;;;11.83;64.78
71643;BME280;59438;45.014;39.006;2022-09-09T03:54:30;101903.28;;;11.82;66.47
71643;BME280;59438;45.014;39.006;2022-09-09T03:56:56;101906.00;;;11.80;64.94
71643;BME280;59438;45.014;39.006;2022-09-09T03:59:22;101902.44;;;11.81;65.89
71643;BME280;59438;45.014;39.006;2022-09-09T04:01:49;101905.88;;;11.85;65.63
71643;BME280;59438;45.014;39.006;2022-09-09T04:04:15;101903.22;;;11.86;65.17
71643;BME280;59438;45.014;39.006;2022-09-09T04:06:41;101904.91;;;11.91;65.23
71643;BME280;59438;45.014;39.006;2022-09-09T04:09:08;101914.47;;;11.95;65.80
71643;BME280;59438;45.014;39.006;2022-09-09T04:11:36;101916.19;;;11.96;66.93
71643;BME280;59438;45.014;39.006;2022-09-09T04:14:02;101914.38;;;11.98;65.37
71643;BME280;59438;45.014;39.006;2022-09-09T04:16:29;101910.84;;;11.99;65.92
71643;BME280;59438;45.014;39.006;2022-09-09T04:18:55;101906.38;;;12.02;65.61
71643;BME280;59438;45.014;39.006;2022-09-09T04:21:21;101916.72;;;12.10;66.59
71643;BME280;59438;45.014;39.006;2022-09-09T04:23:48;101915.69;;;12.17;66.04
71643;BME280;59438;45.014;39.006;2022-09-09T04:26:14;101918.09;;;12.25;65.97
71643;BME280;59438;45.014;39.006;2022-09-09T04:28:42;101918.88;;;12.30;67.01
71643;BME280;59438;45.014;39.006;2022-09-09T04:31:10;101921.31;;;12.38;66.48
71643;BME280;59438;45.014;39.006;2022-09-09T04:33:40;101928.28;;;12.40;66.14
71643;BME280;59438;45.014;39.006;2022-09-09T04:36:07;101923.81;;;12.44;66.01
71643;BME280;59438;45.014;39.006;2022-09-09T04:38:33;101926.22;;;12.52;65.89
71643;BME280;59438;45.014;39.006;2022-09-09T04:41:00;101927.81;;;12.59;65.45
71643;BME280;59438;45.014;39.006;2022-09-09T04:43:26;101932.75;;;12.71;65.88
71643;BME280;59438;45.014;39.006;2022-09-09T04:45:54;101947.44;;;12.81;66.80
71643;BME280;59438;45.014;39.006;2022-09-09T04:48:21;101932.25;;;12.91;65.30
71643;BME280;59438;45.014;39.006;2022-09-09T04:50:54;101936.34;;;13.01;66.38
71643;BME280;59438;45.014;39.006;2022-09-09T04:53:21;101934.44;;;13.06;64.96
71643;BME280;59438;45.014;39.006;2022-09-09T04:55:47;101934.25;;;13.13;65.04
71643;BME280;59438;45.014;39.006;2022-09-09T04:58:14;101933.25;;;13.18;65.00
71643;BME280;59438;45.014;39.006;2022-09-09T05:00:40;101935.59;;;13.27;64.92
71643;BME280;59438;45.014;39.006;2022-09-09T05:03:08;101928.31;;;13.37;65.45
71643;BME280;59438;45.014;39.006;2022-09-09T05:05:35;101921.88;;;13.47;64.73
71643;BME280;59438;45.014;39.006;2022-09-09T05:08:02;101928.59;;;13.58;64.36
71643;BME280;59438;45.014;39.006;2022-09-09T05:10:29;101926.59;;;13.66;64.20
71643;BME280;59438;45.014;39.006;2022-09-09T05:12:55;101930.75;;;13.73;64.14
71643;BME280;59438;45.014;39.006;2022-09-09T05:15:22;101930.69;;;13.76;64.17
71643;BME280;59438;45.014;39.006;2022-09-09T05:17:48;101934.84;;;13.83;63.93
71643;BME280;59438;45.014;39.006;2022-09-09T05:20:16;101926.84;;;13.86;65.01
71643;BME280;59438;45.014;39.006;2022-09-09T05:22:43;101924.91;;;13.91;64.32
71643;BME280;59438;45.014;39.006;2022-09-09T05:25:09;101933.56;;;13.97;64.00
71643;BME280;59438;45.014;39.006;2022-09-09T05:27:36;101933.16;;;14.09;63.61
71643;BME280;59438;45.014;39.006;2022-09-09T05:30:03;101932.00;;;14.18;63.34
71643;BME280;59438;45.014;39.006;2022-09-09T05:32:29;101933.47;;;14.26;62.55
71643;BME280;59438;45.014;39.006;2022-09-09T05:34:56;101929.72;;;14.34;62.46
71643;BME280;59438;45.014;39.006;2022-09-09T05:37:24;101935.66;;;14.40;62.42
71643;BME280;59438;45.014;39.006;2022-09-09T05:39:50;101943.38;;;14.46;61.75
71643;BME280;59438;45.014;39.006;2022-09-09T05:42:16;101931.97;;;14.46;61.87
71643;BME280;59438;45.014;39.006;2022-09-09T05:44:43;101940.31;;;14.60;61.56
71643;BME280;59438;45.014;39.006;2022-09-09T05:47:09;101943.44;;;14.71;60.87
71643;BME280;59438;45.014;39.006;2022-09-09T05:49:36;101935.94;;;14.84;60.28
71643;BME280;59438;45.014;39.006;2022-09-09T05:52:02;101939.97;;;14.95;60.13
71643;BME280;59438;45.014;39.006;2022-09-09T05:54:30;101935.22;;;15.04;59.43
71643;BME280;59438;45.014;39.006;2022-09-09T05:56:56;101935.00;;;15.10;59.25
71643;BME280;59438;45.014;39.006;2022-09-09T05:59:23;101945.38;;;15.17;58.81
71643;BME280;59438;45.014;39.006;2022-09-09T06:01:49;101953.94;;;15.23;58.60
71643;BME280;59438;45.014;39.006;2022-09-09T06:04:16;101942.28;;;15.29;58.32
71643;BME280;59438;45.014;39.006;2022-09-09T06:06:42;101952.59;;;15.37;58.18
71643;BME280;59438;45.014;39.006;2022-09-09T06:09:09;101947.06;;;15.43;57.80
71643;BME280;59438;45.014;39.006;2022-09-09T06:11:38;101950.09;;;15.56;56.79
71643;BME280;59438;45.014;39.006;2022-09-09T06:14:05;101940.94;;;15.64;57.01
71643;BME280;59438;45.014;39.006;2022-09-09T06:16:32;101937.13;;;15.71;56.66
71643;BME280;59438;45.014;39.006;2022-09-09T06:18:59;101936.84;;;15.79;56.63
71643;BME280;59438;45.014;39.006;2022-09-09T06:21:27;101938.44;;;15.83;56.38
71643;BME280;59438;45.014;39.006;2022-09-09T06:23:53;101937.34;;;15.89;56.13
71643;BME280;59438;45.014;39.006;2022-09-09T06:26:21;101937.09;;;15.95;56.13
71643;BME280;59438;45.014;39.006;2022-09-09T06:28:50;101939.47;;;16.03;55.65
71643;BME280;59438;45.014;39.006;2022-09-09T06:31:17;101906.25;;;15.94;55.30
71643;BME280;59438;45.014;39.006;2022-09-09T06:33:44;101937.78;;;16.22;55.26
71643;BME280;59438;45.014;39.006;2022-09-09T06:36:12;101916.41;;;16.27;53.89
71643;BME280;59438;45.014;39.006;2022-09-09T06:38:39;101935.25;;;16.41;55.12
71643;BME280;59438;45.014;39.006;2022-09-09T06:41:05;101932.25;;;16.49;54.81
71643;BME280;59438;45.014;39.006;2022-09-09T06:43:32;101925.78;;;16.56;54.39
71643;BME280;59438;45.014;39.006;2022-09-09T06:46:01;101932.53;;;16.63;53.46
71643;BME280;59438;45.014;39.006;2022-09-09T06:48:28;101938.31;;;16.73;54.08
71643;BME280;59438;45.014;39.006;2022-09-09T06:51:02;101935.19;;;16.84;53.47
71643;BME280;59438;45.014;39.006;2022-09-09T06:53:30;101931.31;;;16.92;53.33
71643;BME280;59438;45.014;39.006;2022-09-09T06:55:57;101932.53;;;17.04;53.56
71643;BME280;59438;45.014;39.006;2022-09-09T06:58:23;101934.00;;;17.11;53.31
71643;BME280;59438;45.014;39.006;2022-09-09T07:00:49;101936.44;;;17.16;53.56
71643;BME280;59438;45.014;39.006;2022-09-09T07:03:17;101937.06;;;17.21;52.50
71643;BME280;59438;45.014;39.006;2022-09-09T07:05:43;101937.81;;;17.25;53.09
71643;BME280;59438;45.014;39.006;2022-09-09T07:08:19;101938.31;;;17.33;52.98
71643;BME280;59438;45.014;39.006;2022-09-09T07:10:45;101943.22;;;17.42;52.63
71643;BME280;59438;45.014;39.006;2022-09-09T07:13:12;101942.66;;;17.55;51.85
71643;BME280;59438;45.014;39.006;2022-09-09T07:15:38;101921.31;;;17.56;52.05
71643;BME280;59438;45.014;39.006;2022-09-09T07:18:06;101938.34;;;17.71;51.83
71643;BME280;59438;45.014;39.006;2022-09-09T07:20:34;101941.63;;;17.76;50.34
71643;BME280;59438;45.014;39.006;2022-09-09T07:23:01;101941.50;;;17.79;50.77
71643;BME280;59438;45.014;39.006;2022-09-09T07:25:27;101954.53;;;17.85;50.39
71643;BME280;59438;45.014;39.006;2022-09-09T07:27:53;101946.31;;;17.90;50.26
71643;BME280;59438;45.014;39.006;2022-09-09T07:30:20;101944.28;;;17.95;49.51
71643;BME280;59438;45.014;39.006;2022-09-09T07:32:46;101933.28;;;18.03;49.46
71643;BME280;59438;45.014;39.006;2022-09-09T07:35:13;101933.84;;;18.09;49.43
71643;BME280;59438;45.014;39.006;2022-09-09T07:37:41;101936.13;;;18.17;47.82
71643;BME280;59438;45.014;39.006;2022-09-09T07:40:08;101932.44;;;18.20;48.51
71643;BME280;59438;45.014;39.006;2022-09-09T07:42:34;101942.88;;;18.24;48.34
71643;BME280;59438;45.014;39.006;2022-09-09T07:45:00;101939.13;;;18.28;48.35
71643;BME280;59438;45.014;39.006;2022-09-09T07:47:27;101933.50;;;18.35;47.98
71643;BME280;59438;45.014;39.006;2022-09-09T07:49:53;101945.53;;;18.42;48.05
71643;BME280;59438;45.014;39.006;2022-09-09T07:52:19;101939.66;;;18.52;47.95
71643;BME280;59438;45.014;39.006;2022-09-09T07:54:49;101945.31;;;18.64;47.01
71643;BME280;59438;45.014;39.006;2022-09-09T07:57:15;101944.84;;;18.73;47.15
71643;BME280;59438;45.014;39.006;2022-09-09T07:59:41;101942.66;;;18.81;46.73
71643;BME280;59438;45.014;39.006;2022-09-09T08:02:09;101929.91;;;18.88;46.18
71643;BME280;59438;45.014;39.006;2022-09-09T08:04:35;101926.06;;;18.93;46.61
71643;BME280;59438;45.014;39.006;2022-09-09T08:07:02;101921.44;;;18.97;46.26
71643;BME280;59438;45.014;39.006;2022-09-09T08:09:28;101914.16;;;19.01;46.30
71643;BME280;59438;45.014;39.006;2022-09-09T08:11:56;101915.28;;;19.12;45.24
71643;BME280;59438;45.014;39.006;2022-09-09T08:14:23;101934.28;;;19.22;45.80
71643;BME280;59438;45.014;39.006;2022-09-09T08:16:50;101921.34;;;19.32;46.04
71643;BME280;59438;45.014;39.006;2022-09-09T08:19:17;101918.25;;;19.40;45.46
71643;BME280;59438;45.014;39.006;2022-09-09T08:21:44;101908.97;;;19.47;45.42
71643;BME280;59438;45.014;39.006;2022-09-09T08:24:11;101905.03;;;19.54;45.04
71643;BME280;59438;45.014;39.006;2022-09-09T08:26:39;101894.69;;;19.64;44.56
71643;BME280;59438;45.014;39.006;2022-09-09T08:29:09;101892.41;;;19.73;43.44
71643;BME280;59438;45.014;39.006;2022-09-09T08:31:37;101853.03;;;19.63;43.52
71643;BME280;59438;45.014;39.006;2022-09-09T08:34:04;101878.53;;;19.83;43.52
71643;BME280;59438;45.014;39.006;2022-09-09T08:36:32;101883.84;;;19.99;43.65
71643;BME280;59438;45.014;39.006;2022-09-09T08:39:00;101888.75;;;20.06;43.90
71643;BME280;59438;45.014;39.006;2022-09-09T08:41:42;101872.56;;;20.09;42.73
71643;BME280;59438;45.014;39.006;2022-09-09T08:44:20;101868.75;;;20.13;42.19
71643;BME280;59438;45.014;39.006;2022-09-09T08:46:55;101879.84;;;20.22;42.27
71643;BME280;59438;45.014;39.006;2022-09-09T08:52:15;101874.91;;;20.30;41.00
71643;BME280;59438;45.014;39.006;2022-09-09T08:54:42;101886.09;;;20.37;41.61
71643;BME280;59438;45.014;39.006;2022-09-09T08:57:13;101843.16;;;20.25;39.69
71643;BME280;59438;45.014;39.006;2022-09-09T08:59:42;101868.47;;;20.48;40.47
71643;BME280;59438;45.014;39.006;2022-09-09T09:02:15;101867.25;;;20.54;40.47
71643;BME280;59438;45.014;39.006;2022-09-09T09:04:58;101862.31;;;20.62;40.52
71643;BME280;59438;45.014;39.006;2022-09-09T09:07:38;101864.63;;;20.68;39.69
71643;BME280;59438;45.014;39.006;2022-09-09T09:10:15;101852.13;;;20.69;39.96
71643;BME280;59438;45.014;39.006;2022-09-09T09:12:44;101834.88;;;20.60;40.23
71643;BME280;59438;45.014;39.006;2022-09-09T09:15:18;101868.75;;;20.88;38.58
71643;BME280;59438;45.014;39.006;2022-09-09T09:17:45;101866.38;;;20.98;39.96
71643;BME280;59438;45.014;39.006;2022-09-09T09:20:12;101863.94;;;21.08;38.99
71643;BME280;59438;45.014;39.006;2022-09-09T09:22:47;101827.06;;;21.00;37.92
71643;BME280;59438;45.014;39.006;2022-09-09T09:25:17;101840.97;;;21.05;38.06
71643;BME280;59438;45.014;39.006;2022-09-09T09:27:49;101852.03;;;21.13;38.59
71643;BME280;59438;45.014;39.006;2022-09-09T09:30:21;101830.28;;;21.05;37.18
71643;BME280;59438;45.014;39.006;2022-09-09T09:32:53;101850.56;;;21.22;37.19
71643;BME280;59438;45.014;39.006;2022-09-09T09:35:20;101860.88;;;21.28;38.54
71643;BME280;59438;45.014;39.006;2022-09-09T09:37:47;101862.22;;;21.36;37.78
71643;BME280;59438;45.014;39.006;2022-09-09T09:40:15;101856.66;;;21.39;37.40
71643;BME280;59438;45.014;39.006;2022-09-09T09:42:49;101864.13;;;21.48;36.61
71643;BME280;59438;45.014;39.006;2022-09-09T09:45:20;101859.31;;;21.53;36.05
71643;BME280;59438;45.014;39.006;2022-09-09T09:47:58;101833.66;;;21.50;35.51
71643;BME280;59438;45.014;39.006;2022-09-09T09:50:25;101861.19;;;21.65;37.35
71643;BME280;59438;45.014;39.006;2022-09-09T09:52:55;101856.41;;;21.70;35.70
71643;BME280;59438;45.014;39.006;2022-09-09T09:55:21;101857.72;;;21.78;37.85
71643;BME280;59438;45.014;39.006;2022-09-09T09:57:47;101849.50;;;21.81;36.84
71643;BME280;59438;45.014;39.006;2022-09-09T10:00:17;101855.06;;;21.90;35.60
71643;BME280;59438;45.014;39.006;2022-09-09T10:02:46;101861.84;;;21.96;34.59
71643;BME280;59438;45.014;39.006;2022-09-09T10:05:14;101858.97;;;21.99;34.37
71643;BME280;59438;45.014;39.006;2022-09-09T10:07:41;101857.06;;;22.01;34.82
71643;BME280;59438;45.014;39.006;2022-09-09T10:10:12;101823.94;;;21.89;33.13
71643;BME280;59438;45.014;39.006;2022-09-09T10:12:49;101842.59;;;22.04;33.05
71643;BME280;59438;45.014;39.006;2022-09-09T10:15:33;101841.03;;;22.14;33.11
71643;BME280;59438;45.014;39.006;2022-09-09T10:18:16;101840.59;;;22.20;33.03
71643;BME280;59438;45.014;39.006;2022-09-09T10:20:58;101851.66;;;22.28;32.84
71643;BME280;59438;45.014;39.006;2022-09-09T10:23:36;101840.88;;;22.30;33.08
71643;BME280;59438;45.014;39.006;2022-09-09T10:26:17;101840.97;;;22.41;32.05
71643;BME280;59438;45.014;39.006;2022-09-09T10:29:02;101837.13;;;22.45;32.74
71643;BME280;59438;45.014;39.006;2022-09-09T10:31:37;101825.22;;;22.49;32.37
71643;BME280;59438;45.014;39.006;2022-09-09T10:34:33;101832.84;;;22.56;33.12
71643;BME280;59438;45.014;39.006;2022-09-09T10:37:11;101823.72;;;22.58;32.95
71643;BME280;59438;45.014;39.006;2022-09-09T10:39:43;101834.66;;;22.68;33.71
71643;BME280;59438;45.014;39.006;2022-09-09T10:42:12;101828.31;;;22.69;32.94
71643;BME280;59438;45.014;39.006;2022-09-09T10:44:53;101823.91;;;22.81;32.38
71643;BME280;59438;45.014;39.006;2022-09-09T10:47:34;101829.38;;;22.92;33.08
71643;BME280;59438;45.014;39.006;2022-09-09T10:50:18;101822.19;;;22.92;33.45
71643;BME280;59438;45.014;39.006;2022-09-09T10:52:54;101828.41;;;23.06;32.82
71643;BME280;59438;45.014;39.006;2022-09-09T10:55:28;101817.34;;;22.98;32.38
71643;BME280;59438;45.014;39.006;2022-09-09T10:58:02;101832.13;;;23.16;32.09
71643;BME280;59438;45.014;39.006;2022-09-09T11:00:37;101823.03;;;23.19;32.50
71643;BME280;59438;45.014;39.006;2022-09-09T11:03:05;101825.78;;;23.30;33.30
71643;BME280;59438;45.014;39.006;2022-09-09T11:05:38;101816.53;;;23.34;32.59
71643;BME280;59438;45.014;39.006;2022-09-09T11:08:12;101803.97;;;23.34;32.51
71643;BME280;59438;45.014;39.006;2022-09-09T11:10:41;101798.00;;;23.31;32.67
71643;BME280;59438;45.014;39.006;2022-09-09T11:13:15;101769.44;;;23.19;32.75
71643;BME280;59438;45.014;39.006;2022-09-09T11:15:48;101802.97;;;23.48;32.30
71643;BME280;59438;45.014;39.006;2022-09-09T11:18:19;101784.31;;;23.47;31.92
71643;BME280;59438;45.014;39.006;2022-09-09T11:20:49;101801.81;;;23.64;31.81
71643;BME280;59438;45.014;39.006;2022-09-09T11:23:21;101794.19;;;23.70;31.91
71643;BME280;59438;45.014;39.006;2022-09-09T11:25:52;101790.28;;;23.74;32.17
71643;BME280;59438;45.014;39.006;2022-09-09T11:28:31;101776.13;;;23.72;31.90
71643;BME280;59438;45.014;39.006;2022-09-09T11:31:11;101797.75;;;23.82;31.91
71643;BME280;59438;45.014;39.006;2022-09-09T11:34:01;101794.03;;;23.85;31.80
71643;BME280;59438;45.014;39.006;2022-09-09T11:36:57;101787.03;;;23.82;31.63
71643;BME280;59438;45.014;39.006;2022-09-09T11:39:38;101795.25;;;23.92;31.97
71643;BME280;59438;45.014;39.006;2022-09-09T11:42:16;101786.97;;;23.95;31.90
71643;BME280;59438;45.014;39.006;2022-09-09T11:44:43;101782.47;;;23.96;32.37
71643;BME280;59438;45.014;39.006;2022-09-09T11:47:19;101782.34;;;23.97;32.02
71643;BME280;59438;45.014;39.006;2022-09-09T11:49:46;101784.88;;;23.99;32.43
71643;BME280;59438;45.014;39.006;2022-09-09T11:52:21;101786.50;;;24.01;31.53
71643;BME280;59438;45.014;39.006;2022-09-09T11:54:49;101780.25;;;24.01;31.79
71643;BME280;59438;45.014;39.006;2022-09-09T11:57:25;101773.94;;;24.02;31.87
71643;BME280;59438;45.014;39.006;2022-09-09T11:59:53;101781.63;;;24.06;32.38
71643;BME280;59438;45.014;39.006;2022-09-09T12:02:23;101765.88;;;24.02;31.46
71643;BME280;59438;45.014;39.006;2022-09-09T12:04:55;101778.84;;;24.19;31.06
71643;BME280;59438;45.014;39.006;2022-09-09T12:07:30;101757.50;;;24.18;30.85
71643;BME280;59438;45.014;39.006;2022-09-09T12:10:02;101754.31;;;24.12;31.51
71643;BME280;59438;45.014;39.006;2022-09-09T12:12:31;101751.16;;;24.19;31.60
71643;BME280;59438;45.014;39.006;2022-09-09T12:15:02;101746.78;;;24.18;30.99
71643;BME280;59438;45.014;39.006;2022-09-09T12:17:30;101749.09;;;24.22;31.16
71643;BME280;59438;45.014;39.006;2022-09-09T12:20:02;101746.66;;;24.30;31.35
71643;BME280;59438;45.014;39.006;2022-09-09T12:22:37;101734.44;;;24.26;31.39
71643;BME280;59438;45.014;39.006;2022-09-09T12:25:18;101753.22;;;24.38;30.92
71643;BME280;59438;45.014;39.006;2022-09-09T12:27:59;101746.91;;;24.39;31.36
71643;BME280;59438;45.014;39.006;2022-09-09T12:30:31;101732.59;;;24.27;31.15
71643;BME280;59438;45.014;39.006;2022-09-09T12:33:01;101739.06;;;24.36;30.71
71643;BME280;59438;45.014;39.006;2022-09-09T12:35:28;101744.09;;;24.40;31.31
71643;BME280;59438;45.014;39.006;2022-09-09T12:37:59;101731.38;;;24.31;30.47
71643;BME280;59438;45.014;39.006;2022-09-09T12:40:29;101752.75;;;24.44;30.74
71643;BME280;59438;45.014;39.006;2022-09-09T12:42:55;101755.09;;;24.48;31.03
71643;BME280;59438;45.014;39.006;2022-09-09T12:45:23;101752.28;;;24.50;31.12
71643;BME280;59438;45.014;39.006;2022-09-09T12:47:53;101757.16;;;24.56;30.65
71643;BME280;59438;45.014;39.006;2022-09-09T12:50:22;101750.97;;;24.56;30.73
71643;BME280;59438;45.014;39.006;2022-09-09T12:52:50;101750.97;;;24.56;30.97
71643;BME280;59438;45.014;39.006;2022-09-09T12:55:21;101737.63;;;24.43;30.41
71643;BME280;59438;45.014;39.006;2022-09-09T12:57:49;101751.53;;;24.48;30.73
71643;BME280;59438;45.014;39.006;2022-09-09T13:00:21;101718.06;;;24.29;30.32
71643;BME280;59438;45.014;39.006;2022-09-09T13:02:50;101732.84;;;24.35;30.31